sensor_id;sensor_type;location;lat;lon;timestamp;P1;durP1;ratioP1;P2;durP2;ratioP2
64686;SDS011;51113;53.646;-113.674;2024-03-17T00:01:11;2.33;;;1.27;;
64686;SDS011;51113;53.646;-113.674;2024-03-17T00:03:37;1.55;;;1.20;;
64686;SDS011;51113;53.646;-113.674;2024-03-17T00:06:04;1.40;;;1.10;;
64686;SDS011;51113;53.646;-113.674;2024-03-17T00:08:31;4.63;;;1.20;;
64686;SDS011;51113;53.646;-113.674;2024-03-17T00:10:57;2.60;;;1.30;;
64686;SDS011;51113;53.646;-113.674;2024-03-17T00:13:24;1.52;;;0.90;;
64686;SDS011;51113;53.646;-113.674;2024-03-17T00:15:50;5.90;;;1.20;;
64686;SDS011;51113;53.646;-113.674;2024-03-17T00:18:17;1.10;;;1.00;;
64686;SDS011;51113;53.646;-113.674;2024-03-17T00:20:44;1.52;;;1.10;;
64686;SDS011;51113;53.646;-113.674;2024-03-17T00:23:11;1.20;;;1.00;;
64686;SDS011;51113;53.646;-113.674;2024-03-17T00:25:38;1.58;;;1.13;;
64686;SDS011;51113;53.646;-113.674;2024-03-17T00:28:05;2.75;;;1.25;;
64686;SDS011;51113;53.646;-113.674;2024-03-17T00:30:32;2.22;;;1.20;;
64686;SDS011;51113;53.646;-113.674;2024-03-17T00:32:59;5.47;;;1.05;;
64686;SDS011;51113;53.646;-113.674;2024-03-17T00:35:25;1.15;;;1.05;;
64686;SDS011;51113;53.646;-113.674;2024-03-17T00:37:52;1.63;;;1.10;;
64686;SDS011;51113;53.646;-113.674;2024-03-17T00:40:19;3.42;;;1.23;;
64686;SDS011;51113;53.646;-113.674;2024-03-17T00:42:46;1.65;;;1.20;;
64686;SDS011;51113;53.646;-113.674;2024-03-17T00:45:15;1.85;;;1.17;;
64686;SDS011;51113;53.646;-113.674;2024-03-17T00:47:41;5.57;;;1.30;;
64686;SDS011;51113;53.646;-113.674;2024-03-17T00:50:10;1.92;;;1.10;;
64686;SDS011;51113;53.646;-113.674;2024-03-17T00:52:37;1.10;;;0.98;;
64686;SDS011;51113;53.646;-113.674;2024-03-17T00:55:04;3.05;;;1.30;;
64686;SDS011;51113;53.646;-113.674;2024-03-17T00:57:31;4.80;;;2.60;;
64686;SDS011;51113;53.646;-113.674;2024-03-17T00:59:58;4.18;;;1.73;;
64686;SDS011;51113;53.646;-113.674;2024-03-17T01:02:24;6.20;;;1.30;;
64686;SDS011;51113;53.646;-113.674;2024-03-17T01:04:51;1.42;;;1.20;;
64686;SDS011;51113;53.646;-113.674;2024-03-17T01:07:17;1.40;;;1.00;;
64686;SDS011;51113;53.646;-113.674;2024-03-17T01:09:44;2.80;;;1.20;;
64686;SDS011;51113;53.646;-113.674;2024-03-17T01:12:13;2.63;;;1.20;;
64686;SDS011;51113;53.646;-113.674;2024-03-17T01:14:40;6.63;;;1.20;;
64686;SDS011;51113;53.646;-113.674;2024-03-17T01:17:07;2.70;;;1.00;;
64686;SDS011;51113;53.646;-113.674;2024-03-17T01:19:33;6.60;;;1.20;;
64686;SDS011;51113;53.646;-113.674;2024-03-17T01:22:00;2.65;;;1.30;;
64686;SDS011;51113;53.646;-113.674;2024-03-17T01:24:27;2.40;;;1.23;;
64686;SDS011;51113;53.646;-113.674;2024-03-17T01:26:58;2.13;;;1.27;;
64686;SDS011;51113;53.646;-113.674;2024-03-17T01:29:25;5.10;;;1.17;;
64686;SDS011;51113;53.646;-113.674;2024-03-17T01:31:52;1.77;;;1.10;;
64686;SDS011;51113;53.646;-113.674;2024-03-17T01:34:18;1.75;;;1.05;;
64686;SDS011;51113;53.646;-113.674;2024-03-17T01:36:46;2.30;;;1.35;;
64686;SDS011;51113;53.646;-113.674;2024-03-17T01:39:12;2.60;;;1.35;;
64686;SDS011;51113;53.646;-113.674;2024-03-17T01:41:39;3.38;;;1.30;;
64686;SDS011;51113;53.646;-113.674;2024-03-17T01:44:06;5.85;;;1.30;;
64686;SDS011;51113;53.646;-113.674;2024-03-17T01:46:32;3.38;;;0.98;;
64686;SDS011;51113;53.646;-113.674;2024-03-17T01:49:00;2.65;;;1.10;;
64686;SDS011;51113;53.646;-113.674;2024-03-17T01:51:27;7.47;;;1.17;;
64686;SDS011;51113;53.646;-113.674;2024-03-17T01:53:53;4.95;;;1.40;;
64686;SDS011;51113;53.646;-113.674;2024-03-17T01:56:21;1.27;;;1.00;;
64686;SDS011;51113;53.646;-113.674;2024-03-17T01:58:48;1.88;;;1.17;;
64686;SDS011;51113;53.646;-113.674;2024-03-17T02:01:16;4.07;;;1.45;;
64686;SDS011;51113;53.646;-113.674;2024-03-17T02:03:42;1.77;;;1.20;;
64686;SDS011;51113;53.646;-113.674;2024-03-17T02:06:09;1.88;;;1.20;;
64686;SDS011;51113;53.646;-113.674;2024-03-17T02:08:49;2.17;;;1.25;;
64686;SDS011;51113;53.646;-113.674;2024-03-17T02:13:57;4.25;;;1.20;;
64686;SDS011;51113;53.646;-113.674;2024-03-17T02:16:27;1.98;;;1.20;;
64686;SDS011;51113;53.646;-113.674;2024-03-17T02:18:54;3.53;;;1.63;;
64686;SDS011;51113;53.646;-113.674;2024-03-17T02:21:21;2.28;;;1.48;;
64686;SDS011;51113;53.646;-113.674;2024-03-17T02:23:55;2.38;;;1.50;;
64686;SDS011;51113;53.646;-113.674;2024-03-17T02:26:22;3.40;;;1.70;;
64686;SDS011;51113;53.646;-113.674;2024-03-17T02:28:59;7.13;;;1.55;;
64686;SDS011;51113;53.646;-113.674;2024-03-17T02:31:26;2.08;;;1.40;;
64686;SDS011;51113;53.646;-113.674;2024-03-17T02:33:53;2.25;;;1.50;;
64686;SDS011;51113;53.646;-113.674;2024-03-17T02:36:20;2.50;;;1.30;;
64686;SDS011;51113;53.646;-113.674;2024-03-17T02:38:47;2.30;;;1.63;;
64686;SDS011;51113;53.646;-113.674;2024-03-17T02:41:32;4.22;;;1.40;;
64686;SDS011;51113;53.646;-113.674;2024-03-17T02:43:59;4.25;;;1.50;;
64686;SDS011;51113;53.646;-113.674;2024-03-17T02:46:26;4.00;;;1.80;;
64686;SDS011;51113;53.646;-113.674;2024-03-17T02:48:53;11.52;;;2.10;;
64686;SDS011;51113;53.646;-113.674;2024-03-17T02:51:21;3.25;;;1.75;;
64686;SDS011;51113;53.646;-113.674;2024-03-17T02:53:49;3.88;;;2.13;;
64686;SDS011;51113;53.646;-113.674;2024-03-17T02:56:16;5.20;;;2.55;;
64686;SDS011;51113;53.646;-113.674;2024-03-17T02:58:44;3.03;;;1.92;;
64686;SDS011;51113;53.646;-113.674;2024-03-17T03:01:20;11.80;;;2.47;;
64686;SDS011;51113;53.646;-113.674;2024-03-17T03:03:47;3.78;;;1.92;;
64686;SDS011;51113;53.646;-113.674;2024-03-17T03:06:14;4.18;;;2.00;;
64686;SDS011;51113;53.646;-113.674;2024-03-17T03:08:44;2.40;;;1.75;;
64686;SDS011;51113;53.646;-113.674;2024-03-17T03:11:14;5.68;;;1.90;;
64686;SDS011;51113;53.646;-113.674;2024-03-17T03:13:42;4.72;;;2.08;;
64686;SDS011;51113;53.646;-113.674;2024-03-17T03:16:10;4.85;;;2.10;;
64686;SDS011;51113;53.646;-113.674;2024-03-17T03:18:38;6.05;;;1.80;;
64686;SDS011;51113;53.646;-113.674;2024-03-17T03:21:05;3.60;;;2.08;;
64686;SDS011;51113;53.646;-113.674;2024-03-17T03:23:32;7.15;;;1.77;;
64686;SDS011;51113;53.646;-113.674;2024-03-17T03:26:00;3.78;;;2.00;;
64686;SDS011;51113;53.646;-113.674;2024-03-17T03:28:29;9.32;;;2.10;;
64686;SDS011;51113;53.646;-113.674;2024-03-17T03:30:59;3.22;;;1.75;;
64686;SDS011;51113;53.646;-113.674;2024-03-17T03:33:26;3.42;;;2.08;;
64686;SDS011;51113;53.646;-113.674;2024-03-17T03:35:53;7.00;;;2.15;;
64686;SDS011;51113;53.646;-113.674;2024-03-17T03:38:21;3.95;;;1.90;;
64686;SDS011;51113;53.646;-113.674;2024-03-17T03:40:48;4.30;;;2.15;;
64686;SDS011;51113;53.646;-113.674;2024-03-17T03:43:15;2.83;;;1.90;;
64686;SDS011;51113;53.646;-113.674;2024-03-17T03:45:41;3.72;;;2.10;;
64686;SDS011;51113;53.646;-113.674;2024-03-17T03:48:08;4.10;;;2.03;;
64686;SDS011;51113;53.646;-113.674;2024-03-17T03:50:37;3.70;;;1.90;;
64686;SDS011;51113;53.646;-113.674;2024-03-17T03:53:04;3.70;;;2.15;;
64686;SDS011;51113;53.646;-113.674;2024-03-17T03:55:31;3.05;;;1.95;;
64686;SDS011;51113;53.646;-113.674;2024-03-17T03:57:58;6.93;;;2.08;;
64686;SDS011;51113;53.646;-113.674;2024-03-17T04:00:25;4.78;;;2.33;;
64686;SDS011;51113;53.646;-113.674;2024-03-17T04:02:55;7.05;;;1.85;;
64686;SDS011;51113;53.646;-113.674;2024-03-17T04:05:22;3.05;;;1.90;;
64686;SDS011;51113;53.646;-113.674;2024-03-17T04:07:48;3.85;;;1.75;;
64686;SDS011;51113;53.646;-113.674;2024-03-17T04:10:15;3.08;;;2.03;;
64686;SDS011;51113;53.646;-113.674;2024-03-17T04:12:44;3.60;;;2.28;;
64686;SDS011;51113;53.646;-113.674;2024-03-17T04:15:11;4.47;;;1.98;;
64686;SDS011;51113;53.646;-113.674;2024-03-17T04:17:38;8.13;;;1.88;;
64686;SDS011;51113;53.646;-113.674;2024-03-17T04:20:05;4.35;;;1.95;;
64686;SDS011;51113;53.646;-113.674;2024-03-17T04:22:39;9.05;;;1.98;;
64686;SDS011;51113;53.646;-113.674;2024-03-17T04:25:06;3.35;;;1.92;;
64686;SDS011;51113;53.646;-113.674;2024-03-17T04:27:35;3.55;;;1.95;;
64686;SDS011;51113;53.646;-113.674;2024-03-17T04:30:02;3.88;;;2.00;;
64686;SDS011;51113;53.646;-113.674;2024-03-17T04:32:31;2.22;;;1.45;;
64686;SDS011;51113;53.646;-113.674;2024-03-17T04:34:59;5.78;;;2.08;;
64686;SDS011;51113;53.646;-113.674;2024-03-17T04:37:26;3.75;;;1.98;;
64686;SDS011;51113;53.646;-113.674;2024-03-17T04:39:52;4.50;;;1.95;;
64686;SDS011;51113;53.646;-113.674;2024-03-17T04:42:19;3.22;;;1.63;;
64686;SDS011;51113;53.646;-113.674;2024-03-17T04:44:46;3.70;;;2.03;;
64686;SDS011;51113;53.646;-113.674;2024-03-17T04:47:13;2.47;;;1.70;;
64686;SDS011;51113;53.646;-113.674;2024-03-17T04:49:40;2.50;;;1.70;;
64686;SDS011;51113;53.646;-113.674;2024-03-17T04:52:09;2.15;;;1.50;;
64686;SDS011;51113;53.646;-113.674;2024-03-17T04:54:36;5.55;;;1.70;;
64686;SDS011;51113;53.646;-113.674;2024-03-17T04:57:03;4.90;;;1.80;;
64686;SDS011;51113;53.646;-113.674;2024-03-17T04:59:30;3.35;;;1.92;;
64686;SDS011;51113;53.646;-113.674;2024-03-17T05:01:59;6.88;;;1.70;;
64686;SDS011;51113;53.646;-113.674;2024-03-17T05:04:26;2.83;;;1.80;;
64686;SDS011;51113;53.646;-113.674;2024-03-17T05:06:52;2.40;;;1.77;;
64686;SDS011;51113;53.646;-113.674;2024-03-17T05:09:19;5.07;;;1.55;;
64686;SDS011;51113;53.646;-113.674;2024-03-17T05:11:46;3.20;;;1.73;;
64686;SDS011;51113;53.646;-113.674;2024-03-17T05:14:13;4.50;;;1.88;;
64686;SDS011;51113;53.646;-113.674;2024-03-17T05:16:39;3.45;;;1.70;;
64686;SDS011;51113;53.646;-113.674;2024-03-17T05:19:06;5.03;;;1.58;;
64686;SDS011;51113;53.646;-113.674;2024-03-17T05:21:35;3.63;;;1.50;;
64686;SDS011;51113;53.646;-113.674;2024-03-17T05:24:02;8.25;;;1.83;;
64686;SDS011;51113;53.646;-113.674;2024-03-17T05:26:28;3.55;;;1.70;;
64686;SDS011;51113;53.646;-113.674;2024-03-17T05:28:57;1.92;;;1.50;;
64686;SDS011;51113;53.646;-113.674;2024-03-17T05:31:23;2.92;;;1.83;;
64686;SDS011;51113;53.646;-113.674;2024-03-17T05:33:50;3.90;;;2.08;;
64686;SDS011;51113;53.646;-113.674;2024-03-17T05:36:17;5.72;;;1.88;;
64686;SDS011;51113;53.646;-113.674;2024-03-17T05:38:45;5.78;;;1.80;;
64686;SDS011;51113;53.646;-113.674;2024-03-17T05:41:12;3.05;;;1.67;;
64686;SDS011;51113;53.646;-113.674;2024-03-17T05:43:40;5.43;;;1.80;;
64686;SDS011;51113;53.646;-113.674;2024-03-17T05:46:10;3.42;;;1.60;;
64686;SDS011;51113;53.646;-113.674;2024-03-17T05:48:39;2.20;;;1.50;;
64686;SDS011;51113;53.646;-113.674;2024-03-17T05:51:06;2.65;;;1.90;;
64686;SDS011;51113;53.646;-113.674;2024-03-17T05:53:35;4.97;;;1.75;;
64686;SDS011;51113;53.646;-113.674;2024-03-17T05:56:06;3.15;;;1.60;;
64686;SDS011;51113;53.646;-113.674;2024-03-17T05:58:41;4.55;;;1.55;;
64686;SDS011;51113;53.646;-113.674;2024-03-17T06:01:08;2.53;;;1.50;;
64686;SDS011;51113;53.646;-113.674;2024-03-17T06:03:35;3.58;;;1.60;;
64686;SDS011;51113;53.646;-113.674;2024-03-17T06:06:02;6.22;;;1.90;;
64686;SDS011;51113;53.646;-113.674;2024-03-17T06:08:30;2.55;;;1.60;;
64686;SDS011;51113;53.646;-113.674;2024-03-17T06:10:56;4.13;;;1.58;;
64686;SDS011;51113;53.646;-113.674;2024-03-17T06:13:26;5.93;;;1.50;;
64686;SDS011;51113;53.646;-113.674;2024-03-17T06:15:54;7.55;;;2.05;;
64686;SDS011;51113;53.646;-113.674;2024-03-17T06:18:23;3.38;;;1.83;;
64686;SDS011;51113;53.646;-113.674;2024-03-17T06:20:50;2.30;;;1.40;;
64686;SDS011;51113;53.646;-113.674;2024-03-17T06:23:16;3.45;;;1.67;;
64686;SDS011;51113;53.646;-113.674;2024-03-17T06:28:11;2.10;;;1.45;;
64686;SDS011;51113;53.646;-113.674;2024-03-17T06:30:43;2.80;;;1.90;;
64686;SDS011;51113;53.646;-113.674;2024-03-17T06:33:11;3.42;;;1.50;;
64686;SDS011;51113;53.646;-113.674;2024-03-17T06:35:38;3.35;;;1.55;;
64686;SDS011;51113;53.646;-113.674;2024-03-17T06:38:05;3.85;;;1.45;;
64686;SDS011;51113;53.646;-113.674;2024-03-17T06:40:38;2.72;;;1.70;;
64686;SDS011;51113;53.646;-113.674;2024-03-17T06:43:05;8.75;;;1.55;;
64686;SDS011;51113;53.646;-113.674;2024-03-17T06:45:32;4.45;;;1.67;;
64686;SDS011;51113;53.646;-113.674;2024-03-17T06:47:58;2.47;;;1.60;;
64686;SDS011;51113;53.646;-113.674;2024-03-17T06:50:25;2.05;;;1.60;;
64686;SDS011;51113;53.646;-113.674;2024-03-17T06:52:52;2.20;;;1.50;;
64686;SDS011;51113;53.646;-113.674;2024-03-17T06:55:18;2.42;;;1.63;;
64686;SDS011;51113;53.646;-113.674;2024-03-17T06:57:47;3.20;;;1.70;;
64686;SDS011;51113;53.646;-113.674;2024-03-17T07:00:14;2.55;;;1.50;;
64686;SDS011;51113;53.646;-113.674;2024-03-17T07:02:42;4.00;;;1.45;;
64686;SDS011;51113;53.646;-113.674;2024-03-17T07:05:13;2.72;;;1.63;;
64686;SDS011;51113;53.646;-113.674;2024-03-17T07:07:43;4.20;;;1.60;;
64686;SDS011;51113;53.646;-113.674;2024-03-17T07:10:10;3.88;;;1.60;;
64686;SDS011;51113;53.646;-113.674;2024-03-17T07:12:38;7.85;;;1.55;;
64686;SDS011;51113;53.646;-113.674;2024-03-17T07:15:05;3.58;;;1.80;;
64686;SDS011;51113;53.646;-113.674;2024-03-17T07:17:32;3.72;;;1.70;;
64686;SDS011;51113;53.646;-113.674;2024-03-17T07:20:00;2.50;;;1.70;;
64686;SDS011;51113;53.646;-113.674;2024-03-17T07:22:27;4.35;;;1.77;;
64686;SDS011;51113;53.646;-113.674;2024-03-17T07:24:54;4.03;;;1.48;;
64686;SDS011;51113;53.646;-113.674;2024-03-17T07:27:26;4.10;;;1.80;;
64686;SDS011;51113;53.646;-113.674;2024-03-17T07:29:56;4.70;;;1.48;;
64686;SDS011;51113;53.646;-113.674;2024-03-17T07:32:23;2.50;;;1.60;;
64686;SDS011;51113;53.646;-113.674;2024-03-17T07:34:49;3.08;;;1.88;;
64686;SDS011;51113;53.646;-113.674;2024-03-17T07:37:16;2.72;;;1.63;;
64686;SDS011;51113;53.646;-113.674;2024-03-17T07:39:43;2.50;;;1.60;;
64686;SDS011;51113;53.646;-113.674;2024-03-17T07:42:10;2.20;;;1.67;;
64686;SDS011;51113;53.646;-113.674;2024-03-17T07:44:39;2.15;;;1.58;;
64686;SDS011;51113;53.646;-113.674;2024-03-17T07:47:05;1.90;;;1.42;;
64686;SDS011;51113;53.646;-113.674;2024-03-17T07:49:33;2.35;;;1.50;;
64686;SDS011;51113;53.646;-113.674;2024-03-17T07:51:59;4.40;;;2.00;;
64686;SDS011;51113;53.646;-113.674;2024-03-17T07:54:26;3.28;;;1.60;;
64686;SDS011;51113;53.646;-113.674;2024-03-17T07:56:53;3.30;;;1.60;;
64686;SDS011;51113;53.646;-113.674;2024-03-17T07:59:20;3.00;;;1.80;;
64686;SDS011;51113;53.646;-113.674;2024-03-17T08:01:47;3.17;;;1.98;;
64686;SDS011;51113;53.646;-113.674;2024-03-17T08:04:13;1.88;;;1.40;;
64686;SDS011;51113;53.646;-113.674;2024-03-17T08:06:40;1.80;;;1.45;;
64686;SDS011;51113;53.646;-113.674;2024-03-17T08:09:07;1.90;;;1.45;;
64686;SDS011;51113;53.646;-113.674;2024-03-17T08:11:35;4.38;;;1.80;;
64686;SDS011;51113;53.646;-113.674;2024-03-17T08:14:02;3.15;;;1.52;;
64686;SDS011;51113;53.646;-113.674;2024-03-17T08:16:30;3.15;;;1.77;;
64686;SDS011;51113;53.646;-113.674;2024-03-17T08:18:56;4.80;;;1.80;;
64686;SDS011;51113;53.646;-113.674;2024-03-17T08:21:23;2.63;;;1.52;;
64686;SDS011;51113;53.646;-113.674;2024-03-17T08:23:50;3.75;;;1.83;;
64686;SDS011;51113;53.646;-113.674;2024-03-17T08:26:17;2.97;;;1.50;;
64686;SDS011;51113;53.646;-113.674;2024-03-17T08:28:44;2.83;;;1.83;;
64686;SDS011;51113;53.646;-113.674;2024-03-17T08:31:12;8.35;;;1.88;;
64686;SDS011;51113;53.646;-113.674;2024-03-17T08:33:41;5.03;;;2.10;;
64686;SDS011;51113;53.646;-113.674;2024-03-17T08:36:07;2.58;;;1.73;;
64686;SDS011;51113;53.646;-113.674;2024-03-17T08:38:35;1.58;;;1.33;;
64686;SDS011;51113;53.646;-113.674;2024-03-17T08:41:03;2.78;;;1.80;;
64686;SDS011;51113;53.646;-113.674;2024-03-17T08:43:34;5.78;;;1.90;;
64686;SDS011;51113;53.646;-113.674;2024-03-17T08:46:03;2.33;;;1.65;;
64686;SDS011;51113;53.646;-113.674;2024-03-17T08:48:32;2.88;;;1.77;;
64686;SDS011;51113;53.646;-113.674;2024-03-17T08:51:01;3.42;;;1.98;;
64686;SDS011;51113;53.646;-113.674;2024-03-17T08:53:28;3.03;;;1.85;;
64686;SDS011;51113;53.646;-113.674;2024-03-17T08:55:55;3.13;;;1.75;;
64686;SDS011;51113;53.646;-113.674;2024-03-17T08:58:23;2.92;;;1.80;;
64686;SDS011;51113;53.646;-113.674;2024-03-17T09:00:51;2.90;;;1.75;;
64686;SDS011;51113;53.646;-113.674;2024-03-17T09:03:18;4.80;;;1.98;;
64686;SDS011;51113;53.646;-113.674;2024-03-17T09:05:45;2.53;;;1.65;;
64686;SDS011;51113;53.646;-113.674;2024-03-17T09:08:15;4.10;;;1.85;;
64686;SDS011;51113;53.646;-113.674;2024-03-17T09:10:46;4.50;;;2.00;;
64686;SDS011;51113;53.646;-113.674;2024-03-17T09:13:16;2.88;;;1.80;;
64686;SDS011;51113;53.646;-113.674;2024-03-17T09:15:57;2.92;;;1.90;;
64686;SDS011;51113;53.646;-113.674;2024-03-17T09:20:58;3.33;;;1.90;;
64686;SDS011;51113;53.646;-113.674;2024-03-17T09:23:29;2.92;;;2.00;;
64686;SDS011;51113;53.646;-113.674;2024-03-17T09:28:28;2.35;;;1.77;;
64686;SDS011;51113;53.646;-113.674;2024-03-17T09:30:55;8.55;;;2.22;;
64686;SDS011;51113;53.646;-113.674;2024-03-17T09:33:22;3.38;;;2.15;;
64686;SDS011;51113;53.646;-113.674;2024-03-17T09:35:54;4.22;;;2.03;;
64686;SDS011;51113;53.646;-113.674;2024-03-17T09:38:21;5.05;;;1.95;;
64686;SDS011;51113;53.646;-113.674;2024-03-17T09:40:48;5.03;;;2.17;;
64686;SDS011;51113;53.646;-113.674;2024-03-17T09:43:25;3.53;;;2.17;;
64686;SDS011;51113;53.646;-113.674;2024-03-17T09:45:52;3.45;;;2.13;;
64686;SDS011;51113;53.646;-113.674;2024-03-17T09:48:26;5.53;;;2.08;;
64686;SDS011;51113;53.646;-113.674;2024-03-17T09:50:55;3.60;;;2.40;;
64686;SDS011;51113;53.646;-113.674;2024-03-17T09:53:40;3.63;;;2.30;;
64686;SDS011;51113;53.646;-113.674;2024-03-17T09:56:11;3.58;;;2.28;;
64686;SDS011;51113;53.646;-113.674;2024-03-17T09:58:41;10.40;;;2.22;;
64686;SDS011;51113;53.646;-113.674;2024-03-17T10:01:08;3.22;;;2.17;;
64686;SDS011;51113;53.646;-113.674;2024-03-17T10:06:17;3.50;;;2.38;;
64686;SDS011;51113;53.646;-113.674;2024-03-17T10:08:46;4.82;;;2.20;;
64686;SDS011;51113;53.646;-113.674;2024-03-17T10:11:17;4.18;;;2.10;;
64686;SDS011;51113;53.646;-113.674;2024-03-17T10:13:45;3.92;;;2.38;;
64686;SDS011;51113;53.646;-113.674;2024-03-17T10:16:20;3.90;;;2.00;;
64686;SDS011;51113;53.646;-113.674;2024-03-17T10:19:13;3.80;;;2.10;;
64686;SDS011;51113;53.646;-113.674;2024-03-17T10:21:45;3.67;;;2.25;;
64686;SDS011;51113;53.646;-113.674;2024-03-17T10:24:16;5.88;;;2.05;;
64686;SDS011;51113;53.646;-113.674;2024-03-17T10:26:47;4.60;;;2.10;;
64686;SDS011;51113;53.646;-113.674;2024-03-17T10:31:43;3.85;;;2.38;;
64686;SDS011;51113;53.646;-113.674;2024-03-17T10:34:14;3.28;;;1.92;;
64686;SDS011;51113;53.646;-113.674;2024-03-17T10:36:45;4.72;;;2.38;;
64686;SDS011;51113;53.646;-113.674;2024-03-17T10:39:25;3.53;;;2.10;;
64686;SDS011;51113;53.646;-113.674;2024-03-17T10:41:59;5.28;;;2.33;;
64686;SDS011;51113;53.646;-113.674;2024-03-17T10:44:28;4.00;;;2.00;;
64686;SDS011;51113;53.646;-113.674;2024-03-17T10:46:55;3.22;;;2.25;;
64686;SDS011;51113;53.646;-113.674;2024-03-17T10:49:33;3.90;;;2.38;;
64686;SDS011;51113;53.646;-113.674;2024-03-17T10:52:01;4.13;;;2.17;;
64686;SDS011;51113;53.646;-113.674;2024-03-17T10:54:32;4.70;;;2.17;;
64686;SDS011;51113;53.646;-113.674;2024-03-17T10:59:41;5.18;;;2.13;;
64686;SDS011;51113;53.646;-113.674;2024-03-17T11:02:25;4.07;;;2.17;;
64686;SDS011;51113;53.646;-113.674;2024-03-17T11:05:10;4.13;;;2.35;;
64686;SDS011;51113;53.646;-113.674;2024-03-17T11:07:42;6.75;;;2.20;;
64686;SDS011;51113;53.646;-113.674;2024-03-17T11:10:20;3.72;;;2.08;;
64686;SDS011;51113;53.646;-113.674;2024-03-17T11:12:50;3.42;;;2.00;;
64686;SDS011;51113;53.646;-113.674;2024-03-17T11:23:56;3.05;;;2.22;;
64686;SDS011;51113;53.646;-113.674;2024-03-17T11:26:28;4.80;;;2.28;;
64686;SDS011;51113;53.646;-113.674;2024-03-17T11:28:59;4.63;;;2.47;;
64686;SDS011;51113;53.646;-113.674;2024-03-17T11:34:04;3.50;;;2.08;;
64686;SDS011;51113;53.646;-113.674;2024-03-17T11:36:34;2.97;;;1.98;;
64686;SDS011;51113;53.646;-113.674;2024-03-17T11:39:08;3.95;;;1.88;;
64686;SDS011;51113;53.646;-113.674;2024-03-17T11:41:56;3.00;;;2.17;;
64686;SDS011;51113;53.646;-113.674;2024-03-17T11:44:36;3.47;;;2.22;;
64686;SDS011;51113;53.646;-113.674;2024-03-17T11:47:03;6.28;;;2.38;;
64686;SDS011;51113;53.646;-113.674;2024-03-17T11:49:32;4.82;;;2.25;;
64686;SDS011;51113;53.646;-113.674;2024-03-17T11:52:00;7.15;;;2.15;;
64686;SDS011;51113;53.646;-113.674;2024-03-17T11:54:30;3.22;;;2.00;;
64686;SDS011;51113;53.646;-113.674;2024-03-17T11:57:08;4.35;;;2.15;;
64686;SDS011;51113;53.646;-113.674;2024-03-17T11:59:37;3.72;;;2.25;;
64686;SDS011;51113;53.646;-113.674;2024-03-17T12:02:20;4.15;;;2.60;;
64686;SDS011;51113;53.646;-113.674;2024-03-17T12:04:49;4.82;;;2.25;;
64686;SDS011;51113;53.646;-113.674;2024-03-17T12:07:17;5.00;;;2.10;;
64686;SDS011;51113;53.646;-113.674;2024-03-17T12:09:47;2.78;;;2.05;;
64686;SDS011;51113;53.646;-113.674;2024-03-17T12:14:45;6.22;;;2.70;;
64686;SDS011;51113;53.646;-113.674;2024-03-17T12:17:14;4.13;;;2.25;;
64686;SDS011;51113;53.646;-113.674;2024-03-17T12:19:46;3.00;;;2.33;;
64686;SDS011;51113;53.646;-113.674;2024-03-17T12:22:20;4.05;;;2.45;;
64686;SDS011;51113;53.646;-113.674;2024-03-17T12:24:48;3.03;;;2.08;;
64686;SDS011;51113;53.646;-113.674;2024-03-17T12:27:17;5.00;;;2.55;;
64686;SDS011;51113;53.646;-113.674;2024-03-17T12:29:45;6.18;;;2.30;;
64686;SDS011;51113;53.646;-113.674;2024-03-17T12:32:17;4.28;;;1.83;;
64686;SDS011;51113;53.646;-113.674;2024-03-17T12:34:45;8.32;;;2.22;;
64686;SDS011;51113;53.646;-113.674;2024-03-17T12:37:20;5.13;;;2.05;;
64686;SDS011;51113;53.646;-113.674;2024-03-17T12:39:48;3.10;;;2.10;;
64686;SDS011;51113;53.646;-113.674;2024-03-17T12:42:16;3.03;;;2.15;;
64686;SDS011;51113;53.646;-113.674;2024-03-17T12:44:52;3.97;;;2.42;;
64686;SDS011;51113;53.646;-113.674;2024-03-17T12:49:48;3.72;;;2.50;;
64686;SDS011;51113;53.646;-113.674;2024-03-17T12:52:23;2.95;;;1.92;;
64686;SDS011;51113;53.646;-113.674;2024-03-17T12:57:52;5.68;;;2.08;;
64686;SDS011;51113;53.646;-113.674;2024-03-17T13:00:47;2.88;;;1.90;;
64686;SDS011;51113;53.646;-113.674;2024-03-17T13:03:34;3.42;;;2.25;;
64686;SDS011;51113;53.646;-113.674;2024-03-17T13:06:02;2.97;;;2.10;;
64686;SDS011;51113;53.646;-113.674;2024-03-17T13:08:32;2.95;;;1.98;;
64686;SDS011;51113;53.646;-113.674;2024-03-17T13:10:59;5.78;;;2.60;;
64686;SDS011;51113;53.646;-113.674;2024-03-17T13:13:26;3.30;;;2.00;;
64686;SDS011;51113;53.646;-113.674;2024-03-17T13:15:53;3.50;;;2.40;;
64686;SDS011;51113;53.646;-113.674;2024-03-17T13:18:20;3.45;;;2.10;;
64686;SDS011;51113;53.646;-113.674;2024-03-17T13:20:47;3.75;;;2.38;;
64686;SDS011;51113;53.646;-113.674;2024-03-17T13:23:19;4.50;;;2.90;;
64686;SDS011;51113;53.646;-113.674;2024-03-17T13:25:47;3.65;;;2.30;;
64686;SDS011;51113;53.646;-113.674;2024-03-17T13:28:14;4.43;;;2.33;;
64686;SDS011;51113;53.646;-113.674;2024-03-17T13:30:40;6.88;;;2.83;;
64686;SDS011;51113;53.646;-113.674;2024-03-17T13:33:08;5.28;;;2.15;;
64686;SDS011;51113;53.646;-113.674;2024-03-17T13:35:39;4.97;;;3.08;;
64686;SDS011;51113;53.646;-113.674;2024-03-17T13:38:07;4.07;;;2.40;;
64686;SDS011;51113;53.646;-113.674;2024-03-17T13:40:36;4.20;;;2.45;;
64686;SDS011;51113;53.646;-113.674;2024-03-17T13:43:04;3.95;;;2.22;;
64686;SDS011;51113;53.646;-113.674;2024-03-17T13:45:33;4.25;;;2.67;;
64686;SDS011;51113;53.646;-113.674;2024-03-17T13:48:08;4.68;;;2.33;;
64686;SDS011;51113;53.646;-113.674;2024-03-17T13:50:36;4.32;;;2.70;;
64686;SDS011;51113;53.646;-113.674;2024-03-17T13:53:04;4.78;;;2.22;;
64686;SDS011;51113;53.646;-113.674;2024-03-17T13:55:31;4.68;;;2.38;;
64686;SDS011;51113;53.646;-113.674;2024-03-17T13:57:59;3.75;;;2.15;;
64686;SDS011;51113;53.646;-113.674;2024-03-17T14:00:26;5.13;;;2.67;;
64686;SDS011;51113;53.646;-113.674;2024-03-17T14:02:54;5.03;;;2.67;;
64686;SDS011;51113;53.646;-113.674;2024-03-17T14:05:25;3.05;;;2.15;;
64686;SDS011;51113;53.646;-113.674;2024-03-17T14:07:53;3.83;;;2.47;;
64686;SDS011;51113;53.646;-113.674;2024-03-17T14:10:21;2.85;;;2.03;;
64686;SDS011;51113;53.646;-113.674;2024-03-17T14:12:49;2.75;;;2.13;;
64686;SDS011;51113;53.646;-113.674;2024-03-17T14:15:16;3.70;;;2.28;;
64686;SDS011;51113;53.646;-113.674;2024-03-17T14:17:44;3.85;;;2.33;;
64686;SDS011;51113;53.646;-113.674;2024-03-17T14:20:12;4.32;;;2.47;;
64686;SDS011;51113;53.646;-113.674;2024-03-17T14:22:41;3.28;;;2.15;;
64686;SDS011;51113;53.646;-113.674;2024-03-17T14:25:14;3.90;;;2.33;;
64686;SDS011;51113;53.646;-113.674;2024-03-17T14:27:42;4.80;;;2.65;;
64686;SDS011;51113;53.646;-113.674;2024-03-17T14:30:11;3.40;;;2.13;;
64686;SDS011;51113;53.646;-113.674;2024-03-17T14:32:44;3.20;;;2.40;;
64686;SDS011;51113;53.646;-113.674;2024-03-17T14:35:17;5.05;;;2.40;;
64686;SDS011;51113;53.646;-113.674;2024-03-17T14:37:46;4.20;;;2.55;;
64686;SDS011;51113;53.646;-113.674;2024-03-17T14:40:17;5.63;;;2.35;;
64686;SDS011;51113;53.646;-113.674;2024-03-17T14:42:49;4.63;;;2.20;;
64686;SDS011;51113;53.646;-113.674;2024-03-17T14:45:17;4.50;;;2.65;;
64686;SDS011;51113;53.646;-113.674;2024-03-17T14:47:44;3.83;;;2.25;;
64686;SDS011;51113;53.646;-113.674;2024-03-17T14:50:11;3.78;;;2.50;;
64686;SDS011;51113;53.646;-113.674;2024-03-17T14:52:38;3.15;;;2.35;;
64686;SDS011;51113;53.646;-113.674;2024-03-17T14:55:07;3.40;;;2.30;;